Time;durP1;ratioP1;P1;durP2;ratioP2;P2;SDS_P1;SDS_P2;PMS_P1;PMS_P2;Temp;Humidity;BMP_temperature;BMP_pressure;BME280_temperature;BME280_humidity;BME280_pressure;Samples;Min_cycle;Max_cycle;Signal;HPM_P1;HPM_P2
2020/12/19 00:00:12;;;;;;;94.40;39.90;;;;;;;1.00;100.00;96816.78;5069889;28;20192;-65
2020/12/19 00:02:39;;;;;;;84.00;38.63;;;;;;;1.02;100.00;96826.81;5069782;28;20203;-67
2020/12/19 00:05:07;;;;;;;97.93;41.77;;;;;;;1.02;100.00;96826.81;5069744;28;20226;-68
2020/12/19 00:07:34;;;;;;;91.70;38.60;;;;;;;1.03;100.00;96823.28;5069886;28;20243;-67
2020/12/19 00:10:01;;;;;;;81.27;36.83;;;;;;;1.05;100.00;96828.97;5069702;28;20200;-66
2020/12/19 00:12:29;;;;;;;85.80;35.70;;;;;;;1.07;100.00;96825.25;5069772;28;20197;-67
2020/12/19 00:14:55;;;;;;;70.97;33.67;;;;;;;1.11;100.00;96831.53;5069765;28;20199;-68
2020/12/19 00:17:22;;;;;;;72.43;31.47;;;;;;;1.13;100.00;96839.00;5069632;28;20662;-67
2020/12/19 00:19:49;;;;;;;82.47;37.43;;;;;;;1.12;100.00;96832.31;5069773;28;20197;-68
2020/12/19 00:22:16;;;;;;;98.00;42.03;;;;;;;1.13;100.00;96827.00;5069733;28;20220;-66
2020/12/19 00:24:42;;;;;;;110.80;48.23;;;;;;;1.14;100.00;96832.91;5069658;28;20199;-67
2020/12/19 00:27:10;;;;;;;106.17;45.10;;;;;;;1.14;100.00;96836.25;5072521;28;20279;-67
2020/12/19 00:29:38;;;;;;;90.73;40.83;;;;;;;1.18;100.00;96831.53;5073776;28;20197;-65
2020/12/19 00:32:05;;;;;;;74.20;36.60;;;;;;;1.21;100.00;96831.09;5073370;28;20193;-65
2020/12/19 00:34:32;;;;;;;147.17;54.27;;;;;;;1.16;100.00;96836.81;5073269;28;20630;-66
2020/12/19 00:37:00;;;;;;;138.33;40.40;;;;;;;1.15;100.00;96839.56;5073577;28;20643;-67
2020/12/19 00:39:27;;;;;;;208.07;42.53;;;;;;;1.13;100.00;96831.34;5073465;28;20199;-68
2020/12/19 00:41:54;;;;;;;144.23;39.33;;;;;;;1.13;100.00;96839.00;5073143;28;20286;-68
2020/12/19 00:44:21;;;;;;;117.53;28.97;;;;;;;1.16;100.00;96843.72;5073274;28;20197;-67
2020/12/19 00:46:50;;;;;;;136.20;35.80;;;;;;;1.13;100.00;96844.91;5073444;28;20201;-68
2020/12/19 00:49:17;;;;;;;115.93;35.87;;;;;;;1.10;100.00;96852.19;5073220;28;20197;-67
2020/12/19 00:51:43;;;;;;;120.60;31.50;;;;;;;1.10;100.00;96839.41;5073197;28;20211;-68
2020/12/19 00:54:10;;;;;;;87.23;25.07;;;;;;;1.12;100.00;96835.66;5072978;28;20228;-68
2020/12/19 00:56:37;;;;;;;62.43;21.90;;;;;;;1.11;100.00;96840.97;5072912;28;20205;-69
2020/12/19 00:59:04;;;;;;;97.67;25.67;;;;;;;1.01;100.00;96843.16;5073141;28;20204;-68
2020/12/19 01:01:31;;;;;;;59.30;24.30;;;;;;;1.04;100.00;96842.78;5072946;28;20196;-67
2020/12/19 01:04:00;;;;;;;64.23;22.40;;;;;;;0.98;100.00;96839.25;5072941;28;20203;-67
2020/12/19 01:06:28;;;;;;;63.53;20.07;;;;;;;0.98;100.00;96834.13;5072904;28;20260;-68
2020/12/19 01:08:56;;;;;;;135.03;31.93;;;;;;;1.02;100.00;96832.72;5072973;28;20193;-68
2020/12/19 01:11:25;;;;;;;131.47;35.43;;;;;;;0.95;100.00;96836.31;5072842;28;20198;-68
2020/12/19 01:13:53;;;;;;;103.17;27.43;;;;;;;0.95;100.00;96831.19;5072642;28;20220;-68
2020/12/19 01:16:21;;;;;;;90.50;24.83;;;;;;;1.00;100.00;96833.91;5073004;28;20230;-69
2020/12/19 01:18:50;;;;;;;89.93;23.70;;;;;;;0.86;100.00;96822.91;5072661;28;20193;-68
2020/12/19 01:21:20;;;;;;;71.87;22.00;;;;;;;0.84;100.00;96820.56;5072788;28;20188;-68
2020/12/19 01:23:48;;;;;;;86.50;22.20;;;;;;;0.92;100.00;96817.00;5072610;28;20204;-68
2020/12/19 01:26:15;;;;;;;55.50;21.60;;;;;;;0.84;100.00;96817.22;5072375;28;20270;-68
2020/12/19 01:28:42;;;;;;;68.07;24.37;;;;;;;0.76;100.00;96814.84;5072422;28;20652;-67
2020/12/19 01:31:10;;;;;;;76.87;28.93;;;;;;;0.76;100.00;96812.28;5072598;28;20196;-68
2020/12/19 01:33:38;;;;;;;65.53;22.23;;;;;;;0.81;100.00;96817.59;5072086;28;20228;-66
2020/12/19 01:36:09;;;;;;;43.43;20.10;;;;;;;0.84;100.00;96815.44;5072197;28;20196;-66
2020/12/19 01:38:37;;;;;;;97.37;25.70;;;;;;;0.82;100.00;96801.25;5071337;28;20254;-68
2020/12/19 01:41:04;;;;;;;62.97;20.57;;;;;;;0.75;100.00;96806.38;5071999;28;20243;-69
2020/12/19 01:43:47;;;;;;;77.57;23.87;;;;;;;0.74;100.00;96809.16;5072225;28;20276;-66
2020/12/19 01:46:28;;;;;;;79.47;19.87;;;;;;;0.69;100.00;96807.19;5072281;28;20224;-68
2020/12/19 01:48:57;;;;;;;90.13;19.43;;;;;;;0.78;100.00;96810.34;5072080;28;20201;-67
2020/12/19 01:51:24;;;;;;;52.63;19.13;;;;;;;0.78;100.00;96806.00;5072037;28;20205;-68
2020/12/19 01:53:53;;;;;;;71.77;19.80;;;;;;;0.79;100.00;96811.91;5071885;28;20224;-68
2020/12/19 01:56:31;;;;;;;91.17;20.50;;;;;;;0.79;100.00;96811.91;5072178;28;20238;-68
2020/12/19 01:58:58;;;;;;;66.30;19.43;;;;;;;0.80;100.00;96808.34;5071917;28;20201;-68
2020/12/19 02:01:28;;;;;;;65.67;20.13;;;;;;;0.79;100.00;96814.47;5071877;28;20196;-68
2020/12/19 02:03:55;;;;;;;79.80;23.30;;;;;;;0.79;100.00;96817.03;5072251;28;20201;-66
2020/12/19 02:06:24;;;;;;;54.27;20.83;;;;;;;0.91;100.00;96817.19;5071964;28;20203;-67
2020/12/19 02:08:53;;;;;;;63.10;20.90;;;;;;;0.88;100.00;96826.06;5071700;28;20199;-65
2020/12/19 02:11:20;;;;;;;60.80;19.57;;;;;;;0.85;100.00;96826.44;5071693;28;20197;-66
2020/12/19 02:13:47;;;;;;;44.83;19.33;;;;;;;0.85;100.00;96818.78;5071620;28;20229;-68
2020/12/19 02:16:17;;;;;;;63.50;21.80;;;;;;;0.88;100.00;96825.28;5071539;28;20202;-68
2020/12/19 02:18:44;;;;;;;66.37;20.37;;;;;;;0.91;100.00;96819.75;5071641;28;20189;-63
2020/12/19 02:21:11;;;;;;;64.37;19.27;;;;;;;0.85;100.00;96817.00;5071697;28;20196;-68
2020/12/19 02:23:38;;;;;;;63.47;23.07;;;;;;;0.85;100.00;96817.00;5071354;28;20197;-68
2020/12/19 02:26:05;;;;;;;52.13;19.87;;;;;;;0.85;100.00;96811.88;5071391;28;20248;-67
2020/12/19 02:28:32;;;;;;;59.00;23.30;;;;;;;0.83;100.00;96816.44;5071345;28;20198;-68
2020/12/19 02:30:59;;;;;;;73.10;22.07;;;;;;;0.76;100.00;96818.19;5071322;28;20196;-68
2020/12/19 02:33:26;;;;;;;64.00;19.83;;;;;;;0.83;100.00;96813.88;5070960;28;20308;-68
2020/12/19 02:35:53;;;;;;;65.83;21.63;;;;;;;0.76;100.00;96813.06;5071212;28;20556;-67
2020/12/19 02:38:19;;;;;;;58.67;21.63;;;;;;;0.81;100.00;96810.72;5071206;28;20200;-68
2020/12/19 02:40:47;;;;;;;60.53;23.23;;;;;;;0.77;100.00;96814.66;5070937;28;20725;-63
2020/12/19 02:43:14;;;;;;;69.77;23.17;;;;;;;0.76;100.00;96812.28;5070924;28;20663;-68
2020/12/19 02:45:41;;;;;;;82.67;26.20;;;;;;;0.80;100.00;96810.91;5070843;28;20204;-69
2020/12/19 02:48:08;;;;;;;112.27;27.97;;;;;;;0.72;100.00;96804.22;5070987;28;20636;-67
2020/12/19 02:50:34;;;;;;;110.37;31.33;;;;;;;0.75;100.00;96806.38;5070782;28;20216;-67
2020/12/19 02:53:01;;;;;;;98.23;30.70;;;;;;;0.85;100.00;96805.97;5070676;28;20285;-67
2020/12/19 02:55:28;;;;;;;121.43;33.70;;;;;;;0.85;100.00;96803.41;5070854;28;20548;-67
2020/12/19 02:57:56;;;;;;;125.70;34.77;;;;;;;0.93;100.00;96802.44;5070559;28;20552;-68
2020/12/19 03:00:22;;;;;;;140.60;34.53;;;;;;;0.91;100.00;96799.28;5070853;28;20203;-68
2020/12/19 03:02:49;;;;;;;195.80;39.17;;;;;;;0.78;100.00;96795.78;5070891;28;20200;-67
2020/12/19 03:05:16;;;;;;;131.37;38.13;;;;;;;0.86;100.00;96803.22;5070826;28;20242;-67
2020/12/19 03:07:43;;;;;;;141.80;40.87;;;;;;;0.92;100.00;96803.41;5070809;28;20196;-67
2020/12/19 03:10:09;;;;;;;178.13;42.90;;;;;;;0.95;100.00;96805.59;5070595;28;20189;-67
2020/12/19 03:12:36;;;;;;;219.67;42.90;;;;;;;1.03;100.00;96798.47;5070348;28;20193;-68
2020/12/19 03:15:04;;;;;;;201.00;39.47;;;;;;;1.05;100.00;96791.38;5070339;28;20195;-68
2020/12/19 03:17:31;;;;;;;120.33;34.60;;;;;;;1.03;100.00;96797.69;5070460;28;20198;-69
2020/12/19 03:19:57;;;;;;;177.83;40.23;;;;;;;1.06;100.00;96787.81;5070382;28;20206;-68
2020/12/19 03:22:24;;;;;;;337.23;95.43;;;;;;;1.11;100.00;96789.78;5070202;28;20196;-68
2020/12/19 03:24:54;;;;;;;180.00;56.83;;;;;;;1.14;100.00;96794.50;5070318;28;20203;-68
2020/12/19 03:27:21;;;;;;;182.37;39.03;;;;;;;1.13;100.00;96790.38;5070243;28;20249;-68
2020/12/19 03:29:48;;;;;;;117.03;35.00;;;;;;;1.15;100.00;96796.06;5070155;28;20582;-66
2020/12/19 03:32:15;;;;;;;183.53;44.23;;;;;;;1.05;100.00;96801.59;5070144;28;20195;-68
2020/12/19 03:34:42;;;;;;;200.50;46.20;;;;;;;1.08;100.00;96795.31;5070068;28;20237;-67
2020/12/19 03:37:09;;;;;;;242.70;44.37;;;;;;;1.19;100.00;96802.38;5070251;28;20193;-68
2020/12/19 03:39:36;;;;;;;175.13;38.27;;;;;;;0.99;100.00;96802.44;5070175;28;20194;-68
2020/12/19 03:42:02;;;;;;;171.93;36.03;;;;;;;1.09;100.00;96802.00;5070246;28;20307;-67
2020/12/19 03:44:29;;;;;;;141.07;34.03;;;;;;;1.18;100.00;96801.59;5070074;28;20188;-68
2020/12/19 03:46:56;;;;;;;220.00;38.73;;;;;;;1.20;100.00;96804.72;5070041;28;20279;-68
2020/12/19 03:49:24;;;;;;;181.00;38.03;;;;;;;1.23;100.00;96800.97;5070004;28;20204;-67
2020/12/19 03:51:50;;;;;;;236.17;38.57;;;;;;;1.26;100.00;96808.25;5069948;28;20201;-64
2020/12/19 03:54:17;;;;;;;148.90;36.13;;;;;;;1.11;100.00;96807.69;5070155;28;20224;-66
2020/12/19 03:56:44;;;;;;;190.73;38.43;;;;;;;1.13;100.00;96814.19;5069848;28;20194;-68
2020/12/19 03:59:11;;;;;;;216.10;42.83;;;;;;;1.22;100.00;96809.66;5069887;28;20249;-66
2020/12/19 04:01:37;;;;;;;274.40;44.27;;;;;;;1.24;100.00;96817.91;5073937;28;20200;-68
2020/12/19 04:04:04;;;;;;;182.10;42.80;;;;;;;1.24;100.00;96813.59;5076891;28;20195;-68
2020/12/19 04:06:32;;;;;;;177.43;36.40;;;;;;;1.19;100.00;96813.41;5076604;28;20192;-69
2020/12/19 04:08:59;;;;;;;165.73;36.70;;;;;;;1.18;100.00;96805.91;5076390;28;20197;-67
2020/12/19 04:11:26;;;;;;;158.47;36.03;;;;;;;1.24;100.00;96812.81;5076552;28;20220;-67
2020/12/19 04:13:52;;;;;;;155.73;37.90;;;;;;;1.19;100.00;96812.63;5076472;28;20240;-69
2020/12/19 04:16:19;;;;;;;90.07;31.60;;;;;;;1.19;100.00;96815.19;5076353;28;20190;-67
2020/12/19 04:18:46;;;;;;;144.33;35.07;;;;;;;1.13;100.00;96821.09;5076416;28;20583;-67
2020/12/19 04:21:13;;;;;;;117.17;34.00;;;;;;;0.95;100.00;96831.94;5076279;28;20195;-68
2020/12/19 04:23:40;;;;;;;112.53;33.20;;;;;;;0.96;100.00;96822.50;5076325;28;20205;-68
2020/12/19 04:26:07;;;;;;;101.10;34.50;;;;;;;1.00;100.00;96824.44;5076553;28;20204;-64
2020/12/19 04:28:34;;;;;;;163.70;40.60;;;;;;;1.03;100.00;96823.28;5076310;28;20196;-67
2020/12/19 04:31:01;;;;;;;220.77;40.20;;;;;;;0.99;100.00;96832.34;5076507;28;20609;-68
2020/12/19 04:33:27;;;;;;;168.93;40.53;;;;;;;0.86;100.00;96822.91;5076009;28;20236;-68
2020/12/19 04:35:54;;;;;;;172.73;51.00;;;;;;;1.05;100.00;96826.41;5076585;28;20200;-68
2020/12/19 04:38:21;;;;;;;167.30;44.97;;;;;;;1.11;100.00;96830.72;5076238;28;20193;-68
2020/12/19 04:40:49;;;;;;;163.17;41.33;;;;;;;1.04;100.00;96824.84;5076020;28;20261;-65
2020/12/19 04:43:17;;;;;;;175.17;39.00;;;;;;;0.99;100.00;96820.34;5076270;28;20200;-68
2020/12/19 04:45:45;;;;;;;99.87;35.27;;;;;;;1.17;100.00;96828.16;5076106;28;20196;-68
2020/12/19 04:48:12;;;;;;;171.37;39.63;;;;;;;1.32;100.00;96822.03;5076022;28;20222;-68
2020/12/19 04:50:40;;;;;;;111.23;36.10;;;;;;;1.26;100.00;96826.16;5075966;28;20732;-67
2020/12/19 04:53:14;;;;;;;158.40;39.50;;;;;;;1.30;100.00;96827.34;5076231;28;20234;-68
2020/12/19 04:55:41;;;;;;;169.53;39.47;;;;;;;1.25;100.00;96829.72;5076233;28;20216;-67
2020/12/19 04:58:11;;;;;;;116.33;37.50;;;;;;;1.27;100.00;96822.63;5076098;28;20313;-68
2020/12/19 05:00:38;;;;;;;158.87;39.30;;;;;;;1.37;100.00;96830.66;5075760;28;20198;-69
2020/12/19 05:03:05;;;;;;;192.67;41.30;;;;;;;1.24;100.00;96834.06;5076180;28;20197;-68
2020/12/19 05:05:32;;;;;;;103.77;36.37;;;;;;;1.24;100.00;96831.50;5075808;28;20190;-68
2020/12/19 05:07:59;;;;;;;90.23;32.87;;;;;;;1.32;100.00;96827.94;5075830;28;20206;-68
2020/12/19 05:10:26;;;;;;;98.93;34.40;;;;;;;1.34;100.00;96836.22;5075763;28;20279;-68
2020/12/19 05:12:53;;;;;;;109.90;35.97;;;;;;;1.30;100.00;96835.00;5074550;28;20252;-66
2020/12/19 05:15:22;;;;;;;90.23;30.83;;;;;;;1.16;100.00;96833.47;5072620;28;20280;-68
2020/12/19 05:17:52;;;;;;;117.50;34.80;;;;;;;1.24;100.00;96830.72;5072668;28;20201;-68
2020/12/19 05:20:21;;;;;;;89.60;29.80;;;;;;;1.16;100.00;96830.91;5072650;28;20588;-68
2020/12/19 05:22:51;;;;;;;77.37;29.50;;;;;;;1.21;100.00;96831.91;5072502;28;20690;-67
2020/12/19 05:25:20;;;;;;;156.27;35.30;;;;;;;1.25;100.00;96835.63;5072392;28;20199;-68
2020/12/19 05:27:48;;;;;;;96.20;36.13;;;;;;;1.13;100.00;96839.00;5072324;28;20633;-69
2020/12/19 05:30:16;;;;;;;103.63;33.80;;;;;;;1.19;100.00;96844.13;5072519;28;20685;-68
2020/12/19 05:32:47;;;;;;;128.00;34.83;;;;;;;1.22;100.00;96832.69;5072361;28;20198;-67
2020/12/19 05:35:15;;;;;;;140.03;37.40;;;;;;;1.27;100.00;96835.44;5072667;28;20205;-68
2020/12/19 05:37:42;;;;;;;120.23;40.87;;;;;;;1.17;100.00;96840.19;5072428;28;20197;-69
2020/12/19 05:40:10;;;;;;;170.60;36.07;;;;;;;1.16;100.00;96839.38;5072263;28;20751;-67
2020/12/19 05:42:38;;;;;;;107.20;31.77;;;;;;;1.19;100.00;96845.91;5072589;28;20321;-69
2020/12/19 05:45:14;;;;;;;195.73;35.37;;;;;;;1.08;100.00;96837.06;5072223;28;20628;-68
2020/12/19 05:47:41;;;;;;;115.77;31.63;;;;;;;1.12;100.00;96848.47;5072102;28;20203;-67
2020/12/19 05:50:09;;;;;;;290.47;39.23;;;;;;;1.15;100.00;96842.13;5072231;28;20285;-68
2020/12/19 05:52:37;;;;;;;257.53;37.30;;;;;;;1.17;100.00;96847.84;5071999;28;20194;-68
2020/12/19 05:55:08;;;;;;;108.17;31.87;;;;;;;1.22;100.00;96848.84;5071899;28;20231;-68
2020/12/19 05:57:35;;;;;;;133.53;33.40;;;;;;;1.25;100.00;96857.88;5071783;28;20691;-68
2020/12/19 06:00:07;;;;;;;163.50;36.30;;;;;;;1.25;100.00;96857.88;5071904;28;20188;-68
2020/12/19 06:02:35;;;;;;;131.93;35.53;;;;;;;1.27;100.00;96868.72;5072215;28;20560;-68
2020/12/19 06:05:05;;;;;;;269.13;46.47;;;;;;;1.30;100.00;96873.41;5071854;28;20196;-68
2020/12/19 06:07:38;;;;;;;115.50;31.47;;;;;;;1.09;100.00;96874.47;5071941;28;20207;-68
2020/12/19 06:10:08;;;;;;;220.07;36.73;;;;;;;1.08;100.00;96872.88;5071659;28;20260;-67
2020/12/19 06:12:48;;;;;;;114.60;29.93;;;;;;;1.09;100.00;96868.56;5071511;28;20196;-68
2020/12/19 06:15:23;;;;;;;107.53;31.87;;;;;;;1.14;100.00;96873.88;5071791;28;20200;-68
2020/12/19 06:17:57;;;;;;;88.13;31.33;;;;;;;1.19;100.00;96874.06;5071533;28;20281;-67
2020/12/19 06:20:27;;;;;;;98.90;29.23;;;;;;;1.10;100.00;96876.03;5071713;28;20586;-67
2020/12/19 06:22:56;;;;;;;98.47;30.43;;;;;;;1.13;100.00;96870.50;5072125;28;20196;-68
2020/12/19 06:25:40;;;;;;;108.87;32.07;;;;;;;1.13;100.00;96872.28;5070942;28;20697;-68
2020/12/19 06:28:07;;;;;;;204.47;36.03;;;;;;;1.16;100.00;96874.44;5071250;28;20193;-68
2020/12/19 06:30:34;;;;;;;218.57;38.50;;;;;;;1.13;100.00;96885.09;5071282;28;20210;-68
2020/12/19 06:33:12;;;;;;;204.80;36.50;;;;;;;1.27;100.00;96882.31;5071196;28;20287;-69
2020/12/19 06:35:48;;;;;;;181.53;33.63;;;;;;;1.21;100.00;96882.31;5071362;28;20197;-68
2020/12/19 06:38:39;;;;;;;187.80;35.53;;;;;;;1.25;100.00;96883.47;5071122;28;20335;-67
2020/12/19 06:41:06;;;;;;;177.47;34.53;;;;;;;1.31;100.00;96885.25;5070825;28;20200;-68
2020/12/19 06:43:33;;;;;;;155.10;34.73;;;;;;;1.24;100.00;96881.94;5071002;28;20545;-68
2020/12/19 06:45:59;;;;;;;200.17;36.37;;;;;;;1.26;100.00;96885.06;5071054;28;20650;-68
2020/12/19 06:48:31;;;;;;;125.23;35.27;;;;;;;1.25;100.00;96884.25;5070884;28;20200;-68
2020/12/19 06:50:59;;;;;;;165.13;34.33;;;;;;;1.28;100.00;96885.66;5070902;28;20621;-69
2020/12/19 06:53:29;;;;;;;198.80;36.63;;;;;;;1.28;100.00;96883.88;5070946;28;20233;-69
2020/12/19 06:55:56;;;;;;;92.27;32.63;;;;;;;1.38;100.00;96887.78;5070780;28;20211;-68
2020/12/19 06:58:31;;;;;;;182.33;47.37;;;;;;;1.40;100.00;96886.59;5070703;28;20253;-67
2020/12/19 07:00:58;;;;;;;616.77;211.87;;;;;;;1.47;100.00;96886.59;5070822;28;20640;-69
2020/12/19 07:03:41;;;;;;;368.37;95.20;;;;;;;1.41;100.00;96893.28;5070521;28;20199;-68
2020/12/19 07:06:13;;;;;;;251.77;62.20;;;;;;;1.39;100.00;96884.25;5070481;28;20254;-68
2020/12/19 07:08:41;;;;;;;180.87;57.77;;;;;;;1.47;100.00;96889.94;5070683;28;20202;-66
2020/12/19 07:11:37;;;;;;;98.17;35.73;;;;;;;1.43;100.00;96891.34;5070493;28;20287;-68
2020/12/19 07:14:04;;;;;;;133.80;47.63;;;;;;;1.41;100.00;96892.50;5070146;28;20689;-68
2020/12/19 07:16:46;;;;;;;132.10;30.50;;;;;;;1.42;100.00;96897.44;5070649;28;20201;-69
2020/12/19 07:19:23;;;;;;;145.17;29.27;;;;;;;1.47;100.00;96892.50;5069205;28;20192;-67
2020/12/19 07:21:51;;;;;;;103.87;28.03;;;;;;;1.47;100.00;96891.72;5070353;28;20206;-68
2020/12/19 07:24:19;;;;;;;130.17;29.63;;;;;;;1.51;100.00;96903.13;5070342;28;20274;-68
2020/12/19 07:26:46;;;;;;;146.37;30.87;;;;;;;1.57;100.00;96895.44;5070287;28;20199;-69
2020/12/19 07:29:16;;;;;;;100.30;27.83;;;;;;;1.49;100.00;96895.66;5070320;28;20908;-68
2020/12/19 07:31:44;;;;;;;102.63;28.47;;;;;;;1.48;100.00;96893.28;5070471;28;20197;-69
2020/12/19 07:34:11;;;;;;;98.53;27.97;;;;;;;1.55;100.00;96899.97;5070251;28;20233;-67
2020/12/19 07:36:43;;;;;;;104.70;28.67;;;;;;;1.61;100.00;96896.59;5069315;28;20282;-69
2020/12/19 07:39:12;;;;;;;93.07;26.67;;;;;;;1.53;100.00;96889.16;5069962;28;20200;-69
2020/12/19 07:41:42;;;;;;;74.63;28.30;;;;;;;1.64;100.00;96896.19;5070471;28;20241;-68
2020/12/19 07:44:15;;;;;;;88.17;27.30;;;;;;;1.66;100.00;96896.78;5070143;28;20198;-69
2020/12/19 07:46:57;;;;;;;102.67;28.17;;;;;;;1.59;100.00;96895.25;5070233;28;20216;-68
2020/12/19 07:49:32;;;;;;;63.70;26.57;;;;;;;1.72;100.00;96897.75;5070142;28;20199;-70
2020/12/19 07:52:07;;;;;;;63.73;25.80;;;;;;;1.70;100.00;96892.03;5069992;28;20202;-69
2020/12/19 07:54:35;;;;;;;80.50;27.07;;;;;;;1.68;100.00;96896.59;5069681;28;20740;-70
2020/12/19 07:57:03;;;;;;;79.37;27.00;;;;;;;1.79;100.00;96895.16;5069787;28;20288;-68
2020/12/19 07:59:30;;;;;;;77.07;26.50;;;;;;;1.80;100.00;96889.03;5069893;28;20205;-69
2020/12/19 08:01:57;;;;;;;70.90;26.90;;;;;;;1.87;100.00;96900.06;5069760;28;20198;-70
2020/12/19 08:04:24;;;;;;;64.00;26.17;;;;;;;1.97;100.00;96897.84;5070152;28;20279;-69
2020/12/19 08:06:50;;;;;;;90.63;29.57;;;;;;;1.98;100.00;96897.66;5070198;28;20646;-70
2020/12/19 08:09:21;;;;;;;68.53;26.47;;;;;;;2.02;100.00;96900.59;5069720;28;20578;-69
2020/12/19 08:11:49;;;;;;;69.23;26.53;;;;;;;2.05;100.00;96895.03;5069837;28;20198;-69
2020/12/19 08:14:17;;;;;;;73.90;25.50;;;;;;;2.00;100.00;96897.44;5069771;28;20278;-68
2020/12/19 08:16:45;;;;;;;71.83;26.00;;;;;;;1.91;100.00;96904.56;5069871;28;20210;-69
2020/12/19 08:19:18;;;;;;;127.40;29.33;;;;;;;1.98;100.00;96894.28;5069770;28;20657;-69
2020/12/19 08:21:47;;;;;;;88.60;25.63;;;;;;;2.13;100.00;96905.06;5069732;28;20209;-69
2020/12/19 08:24:14;;;;;;;97.60;26.83;;;;;;;2.14;100.00;96901.53;5070068;28;20222;-68
2020/12/19 08:26:41;;;;;;;83.43;27.07;;;;;;;2.19;100.00;96901.69;5069658;28;20204;-68
2020/12/19 08:29:09;;;;;;;65.97;25.63;;;;;;;2.18;100.00;96905.25;5069669;28;20199;-68
2020/12/19 08:31:38;;;;;;;85.60;24.63;;;;;;;2.12;100.00;96906.84;5069537;28;20667;-68
2020/12/19 08:34:06;;;;;;;80.90;26.17;;;;;;;1.92;100.00;96908.72;5069601;28;20232;-70
2020/12/19 08:36:33;;;;;;;94.57;24.90;;;;;;;1.99;100.00;96899.19;5069516;28;20207;-69
2020/12/19 08:39:13;;;;;;;66.83;26.53;;;;;;;2.05;100.00;96906.06;5069331;28;20244;-66
2020/12/19 08:41:40;;;;;;;76.87;26.60;;;;;;;2.07;100.00;96903.31;5069611;28;20231;-69
2020/12/19 08:44:15;;;;;;;64.60;25.83;;;;;;;2.09;100.00;96901.34;5069761;28;20196;-65
2020/12/19 08:46:43;;;;;;;66.70;25.73;;;;;;;2.20;100.00;96899.88;5069858;28;20194;-69
2020/12/19 08:49:11;;;;;;;59.60;24.30;;;;;;;2.24;100.00;96899.31;5073248;28;20195;-69
2020/12/19 08:51:40;;;;;;;54.43;24.63;;;;;;;2.23;100.00;96896.94;5073231;28;20256;-68
2020/12/19 08:54:13;;;;;;;54.90;24.47;;;;;;;2.24;100.00;96894.16;5073018;28;20231;-69
2020/12/19 08:56:39;;;;;;;47.93;22.97;;;;;;;2.19;100.00;96899.13;5073219;28;20198;-69
2020/12/19 08:59:06;;;;;;;51.13;22.57;;;;;;;2.15;100.00;96890.25;5073139;28;20196;-69
2020/12/19 09:01:33;;;;;;;48.77;21.90;;;;;;;2.25;100.00;96887.25;5072953;28;20202;-68
2020/12/19 09:04:09;;;;;;;53.07;26.40;;;;;;;2.33;100.00;96876.75;5073097;28;20206;-68
2020/12/19 09:06:46;;;;;;;52.53;24.23;;;;;;;2.36;100.00;96886.59;5072868;28;20218;-69
2020/12/19 09:09:19;;;;;;;45.23;21.90;;;;;;;2.31;100.00;96878.72;5073009;28;20234;-70
2020/12/19 09:11:46;;;;;;;56.00;24.17;;;;;;;2.10;100.00;96880.63;5072924;28;20672;-69
2020/12/19 09:14:14;;;;;;;51.93;23.57;;;;;;;2.26;100.00;96870.88;5072787;28;20231;-70
2020/12/19 09:16:48;;;;;;;50.27;24.93;;;;;;;2.29;100.00;96873.03;5072970;28;20282;-70
2020/12/19 09:19:17;;;;;;;53.33;24.87;;;;;;;2.38;100.00;96870.00;5073007;28;20204;-69
2020/12/19 09:21:54;;;;;;;54.33;25.20;;;;;;;2.42;100.00;96868.59;5072967;28;20285;-69
2020/12/19 09:24:21;;;;;;;54.70;27.97;;;;;;;2.41;100.00;96863.66;5072821;28;20195;-69
2020/12/19 09:26:48;;;;;;;59.60;25.83;;;;;;;2.37;100.00;96871.00;5072698;28;20609;-68
2020/12/19 09:29:15;;;;;;;55.57;24.80;;;;;;;2.47;100.00;96861.06;5072574;28;20225;-69
2020/12/19 09:31:42;;;;;;;60.00;25.80;;;;;;;2.52;100.00;96866.34;5072438;28;20691;-69
2020/12/19 09:34:09;;;;;;;48.93;23.87;;;;;;;2.55;100.00;96862.56;5072274;28;20246;-67
2020/12/19 09:36:37;;;;;;;52.07;24.90;;;;;;;2.48;100.00;96854.16;5072524;28;20203;-69
2020/12/19 09:39:04;;;;;;;51.60;23.23;;;;;;;2.47;100.00;96853.38;5072619;28;20282;-69
2020/12/19 09:41:31;;;;;;;52.27;24.43;;;;;;;2.60;100.00;96848.13;5072144;28;20239;-67
2020/12/19 09:43:58;;;;;;;51.40;24.03;;;;;;;2.66;100.00;96856.78;5073017;28;20195;-70
2020/12/19 09:46:24;;;;;;;53.87;26.20;;;;;;;2.70;100.00;96852.00;5072131;28;20205;-69
2020/12/19 09:48:51;;;;;;;49.60;25.33;;;;;;;2.68;100.00;96846.31;5072334;28;20204;-68
2020/12/19 09:51:18;;;;;;;53.37;25.63;;;;;;;2.79;100.00;96850.78;5072263;28;20208;-70
2020/12/19 09:53:46;;;;;;;51.03;25.13;;;;;;;2.83;100.00;96842.44;5072096;28;20227;-69
2020/12/19 09:56:13;;;;;;;46.37;22.97;;;;;;;2.85;100.00;96842.19;5072138;28;20191;-70
2020/12/19 09:58:40;;;;;;;52.93;26.10;;;;;;;2.88;100.00;96844.38;5071360;28;20824;-70
2020/12/19 10:01:06;;;;;;;55.53;27.27;;;;;;;2.75;100.00;96839.31;5071941;28;20257;-70
2020/12/19 10:03:33;;;;;;;58.17;26.83;;;;;;;2.96;100.00;96844.09;5071845;28;20195;-70
2020/12/19 10:06:00;;;;;;;64.27;29.83;;;;;;;2.93;100.00;96834.25;5072120;28;20226;-70
2020/12/19 10:08:27;;;;;;;61.80;28.90;;;;;;;2.96;100.00;96832.03;5071953;28;20231;-70
2020/12/19 10:10:54;;;;;;;58.47;29.20;;;;;;;2.90;100.00;96830.31;5071808;28;20196;-70
2020/12/19 10:13:21;;;;;;;59.67;28.83;;;;;;;3.14;100.00;96830.50;5071585;28;20284;-69
2020/12/19 10:15:48;;;;;;;62.70;29.37;;;;;;;3.10;100.00;96834.47;5071841;28;20203;-70
2020/12/19 10:18:15;;;;;;;69.23;29.37;;;;;;;2.99;100.00;96825.69;5071749;28;20205;-71
2020/12/19 10:20:42;;;;;;;73.77;31.30;;;;;;;3.07;100.00;96824.63;5071713;28;20340;-70
2020/12/19 10:23:08;;;;;;;72.67;31.87;;;;;;;3.08;100.00;96827.00;5071493;28;20199;-70
2020/12/19 10:25:35;;;;;;;72.53;31.87;;;;;;;3.02;100.00;96822.72;5071229;28;20199;-70
2020/12/19 10:28:06;;;;;;;72.30;32.23;;;;;;;3.11;100.00;96818.84;5071329;28;20197;-70
2020/12/19 10:30:33;;;;;;;75.13;34.20;;;;;;;3.09;100.00;96814.94;5071137;28;20191;-70
2020/12/19 10:32:59;;;;;;;75.63;31.97;;;;;;;3.23;100.00;96806.88;5071101;28;20208;-71
2020/12/19 10:35:26;;;;;;;67.77;30.00;;;;;;;3.21;100.00;96803.75;5071134;28;20295;-70
2020/12/19 10:37:53;;;;;;;75.60;32.30;;;;;;;3.16;100.00;96793.31;5071075;28;20684;-70
2020/12/19 10:40:20;;;;;;;77.40;32.33;;;;;;;3.13;100.00;96801.47;5071010;28;20670;-70
2020/12/19 10:42:47;;;;;;;79.17;33.70;;;;;;;3.06;100.00;96797.38;5070734;28;20241;-71
2020/12/19 10:45:14;;;;;;;83.00;33.57;;;;;;;3.08;100.00;96796.19;5071010;28;20189;-71
2020/12/19 10:47:41;;;;;;;75.73;34.97;;;;;;;3.04;100.00;96795.00;5071116;28;20203;-71
2020/12/19 10:50:08;;;;;;;86.00;34.40;;;;;;;2.98;100.00;96793.31;5070976;28;20287;-70
2020/12/19 10:52:35;;;;;;;78.50;35.40;;;;;;;3.12;100.00;96789.63;5071053;28;20277;-68
2020/12/19 10:55:02;;;;;;;78.07;34.07;;;;;;;3.24;100.00;96787.13;5070835;28;20225;-71
2020/12/19 10:57:29;;;;;;;74.93;32.73;;;;;;;3.16;100.00;96782.25;5070722;28;20792;-70
2020/12/19 10:59:56;;;;;;;74.57;31.63;;;;;;;3.24;99.63;96787.88;5071211;28;20198;-70
2020/12/19 11:02:24;;;;;;;92.87;37.70;;;;;;;3.13;100.00;96780.91;5071107;28;20201;-70
2020/12/19 11:04:51;;;;;;;109.13;43.23;;;;;;;3.20;100.00;96783.41;5070606;28;20576;-71
2020/12/19 11:07:17;;;;;;;81.43;37.50;;;;;;;3.39;100.00;96775.47;5070780;28;20200;-69
2020/12/19 11:09:44;;;;;;;85.80;41.13;;;;;;;3.65;100.00;96773.56;5070451;28;20196;-71
2020/12/19 11:12:11;;;;;;;81.37;36.20;;;;;;;3.44;100.00;96767.88;5070809;28;20196;-70
2020/12/19 11:14:38;;;;;;;81.73;38.17;;;;;;;3.36;100.00;96765.63;5070616;28;20313;-70
2020/12/19 11:17:04;;;;;;;87.00;37.23;;;;;;;3.63;100.00;96760.16;5070862;28;20197;-70
2020/12/19 11:19:32;;;;;;;87.93;38.90;;;;;;;3.56;100.00;96759.47;5070346;28;20634;-68